Terminal Aerodrome Forecast
Issued by NWS

Home | Current Version | Previous Version | Text Only | Print | Product List | Glossary On
Versions: 1 2 3 4 5 6 7 8 9 10 11 12 13 14 15 16 17 18 19 20 21 22 23
000
FTUS43 KJKL 080533
TAFSJS
TAF
KSJS 080533Z 0806/0906 21003KT 6SM -RA BR VCTS SCT025CB BKN050
      OVC100
     FM080800 VRB03KT 3SM BR VCSH SCT020 BKN050 OVC100
     FM081300 22009KT 5SM -SHRA VCTS OVC015CB
     FM081900 23006KT 5SM -SHRA VCTS BKN050CB
     FM090100 VRB03KT P6SM OVC100=

USA.gov is the U.S. government's official web portal to all federal, state and local government web resources and services.